Holly Ann — WDE9094 — position and weather

sailwx.info

Track history (hours):
 
Tides and Currents Weather Stations Pressure Air Temp Water Temp Dewpoint Dewpoint Depression Visibility Wind Speed Wind Dir Waves Ship Positions

Holly Ann

More information available from US FCC via Universal Licensing System and Coast Guard Vessel Documentation Center.

Last reported at 2014-Jul-19 06:17 UTC. Time now 2014-Jul-22 15:01 UTC.
Position N 47°10' W 122°55'.

; draft 4.5 m.

Type: Towing. MMSI: 367413350.

Date/timePositionNaut miles runAvg speedWind from/ knotsBaromVisibWave heightAir tempDewpointWater temp
2014-Jul-19 06:17N 47°10' W 122°55'6 7.6
2014-Jul-19 05:32N 47°10' W 122°46'8 8.2
2014-Jul-19 04:33N 47°13' W 122°35'1010.4
2014-Jul-19 03:33N 47°23' W 122°32'6 9.0
2014-Jul-19 02:54N 47°29' W 122°30'3 9.2
2014-Jul-19 02:34N 47°32' W 122°28'0 8.7
2014-Jul-19 02:30N 47°32' W 122°28'5 5.4
2014-Jul-19 01:34N 47°34' W 122°21'0 6.1
2014-Jul-19 01:30N 47°34' W 122°21'1 1.0
2014-Jul-19 00:33N 47°33' W 122°20'0 0.0
2014-Jul-19 00:30N 47°33' W 122°20'0 0.0
2014-Jul-18 23:33N 47°33' W 122°20'0 0.0
2014-Jul-18 23:24N 47°33' W 122°20'0 0.0
2014-Jul-18 22:33N 47°33' W 122°20'0 0.0
2014-Jul-18 22:19N 47°33' W 122°20'0 0.0
2014-Jul-18 21:28N 47°33' W 122°20'0 0.0
2014-Jul-18 21:28N 47°33' W 122°20'0 0.0
2014-Jul-18 20:33N 47°33' W 122°20'0 0.0
2014-Jul-18 20:08N 47°33' W 122°20'0 0.0
2014-Jul-18 19:33N 47°33' W 122°20'0 0.0
2014-Jul-18 19:32N 47°33' W 122°20'0 0.0
2014-Jul-18 18:33N 47°33' W 122°20'0 0.0
2014-Jul-18 18:33N 47°33' W 122°20'0 0.0
2014-Jul-18 17:33N 47°33' W 122°20'0 0.0
2014-Jul-18 17:22N 47°33' W 122°20'0 0.0
2014-Jul-18 16:31N 47°33' W 122°20'0 0.0
2014-Jul-18 16:12N 47°33' W 122°20'0 0.1
2014-Jul-18 15:33N 47°33' W 122°20'0 1.3
2014-Jul-18 15:33N 47°33' W 122°20'1 0.6
2014-Jul-18 14:33N 47°33' W 122°21'0 0.0
2014-Jul-18 14:32N 47°33' W 122°21'0 0.0
2014-Jul-18 13:33N 47°33' W 122°21'0 0.0
2014-Jul-18 13:31N 47°33' W 122°21'0 0.0
2014-Jul-18 12:33N 47°33' W 122°21'0 0.0
2014-Jul-18 12:32N 47°33' W 122°21'3 3.2
2014-Jul-18 11:31N 47°36' W 122°23'7 7.6
2014-Jul-18 10:33N 47°30' W 122°29'1 8.6
2014-Jul-18 10:24N 47°29' W 122°30'7 8.6
2014-Jul-18 09:33N 47°22' W 122°32'10 9.7
2014-Jul-18 08:33N 47°13' W 122°36'7 7.3
2014-Jul-18 07:33N 47°10' W 122°46'13 0.3
2014-Jul-16 04:12N 47°13' W 123°05'6 6.0
2014-Jul-16 03:09N 47°12' W 122°55'0 0.0
2014-Jul-16 01:30N 47°12' W 122°55'11 2.7
2014-Jul-15 21:26N 47°11' W 122°39'7 7.4
2014-Jul-15 20:33N 47°16' W 122°33'7 6.6
2014-Jul-15 19:33N 47°23' W 122°32'7 6.6
2014-Jul-15 18:33N 47°29' W 122°30'5 7.2
2014-Jul-15 17:55N 47°34' W 122°28'3 8.3
2014-Jul-15 17:33N 47°37' W 122°28'0 7.4
2014-Jul-15 17:30N 47°37' W 122°28'7 7.8
2014-Jul-15 16:33N 47°44' W 122°27'0 6.8
2014-Jul-15 16:30N 47°45' W 122°27'7 7.8
2014-Jul-15 15:33N 47°52' W 122°23'9 8.6
2014-Jul-15 14:32N 47°59' W 122°15'3 3.5
2014-Jul-15 13:33N 48°01' W 122°11'0 0.0
2014-Jul-15 12:23N 48°01' W 122°11'0 0.0
2014-Jul-15 09:33N 48°01' W 122°11'0 0.0
2014-Jul-15 08:33N 48°01' W 122°11'0 0.0
2014-Jul-15 07:33N 48°01' W 122°11'0 0.0
2014-Jul-15 06:11N 48°01' W 122°11'0 0.0
2014-Jul-15 05:32N 48°01' W 122°11'0 0.0
2014-Jul-15 04:32N 48°01' W 122°11'0 0.0
2014-Jul-15 03:33N 48°01' W 122°11'1 1.1
2014-Jul-15 02:33N 48°01' W 122°13'3 3.2
2014-Jul-15 01:33N 47°58' W 122°15'3 3.4
2014-Jul-15 00:33N 47°57' W 122°19'4 4.3
2014-Jul-14 23:33N 47°52' W 122°21'4 3.7
2014-Jul-14 22:33N 47°49' W 122°24'0 3.2
2014-Jul-14 22:29N 47°49' W 122°24'3 3.3
2014-Jul-14 21:33N 47°46' W 122°25'0 3.3
2014-Jul-14 21:29N 47°46' W 122°25'3 3.4
2014-Jul-14 20:33N 47°43' W 122°26'0 3.4
2014-Jul-14 20:28N 47°42' W 122°26'4 4.9
2014-Jul-14 19:33N 47°38' W 122°27'0 9.3
2014-Jul-14 19:33N 47°38' W 122°27'7 7.0
2014-Jul-14 18:33N 47°31' W 122°29'1 8.1
2014-Jul-14 18:27N 47°30' W 122°29'8 8.4
2014-Jul-14 17:33N 47°23' W 122°32'1010.1
2014-Jul-14 16:33N 47°13' W 122°35'8 7.3
2014-Jul-14 15:26N 47°10' W 122°46'6 6.5
2014-Jul-14 14:29N 47°11' W 122°55'  
2014-Jul-12 01:23N 47°12' W 122°56'13 6.8
2014-Jul-11 23:32N 47°12' W 122°37'10 9.9
2014-Jul-11 22:33N 47°21' W 122°32'9 8.8
2014-Jul-11 21:33N 47°30' W 122°30'3 9.5
2014-Jul-11 21:17N 47°32' W 122°28'5 6.9
2014-Jul-11 20:33N 47°35' W 122°22'0 7.6
2014-Jul-11 20:32N 47°35' W 122°22'2 1.6
2014-Jul-11 19:33N 47°33' W 122°21'0 0.0
2014-Jul-11 19:32N 47°33' W 122°21'0 0.0
2014-Jul-11 18:33N 47°33' W 122°21'0 0.0
2014-Jul-11 18:32N 47°33' W 122°21'0 0.0
2014-Jul-11 17:33N 47°33' W 122°21'0 0.0
2014-Jul-11 17:32N 47°33' W 122°21'0 0.0
2014-Jul-11 16:32N 47°33' W 122°21'0 0.0
2014-Jul-11 15:21N 47°33' W 122°21'0 0.0
2014-Jul-11 14:57N 47°33' W 122°21'0 0.0
2014-Jul-11 14:33N 47°33' W 122°21'0 0.0
2014-Jul-11 14:32N 47°33' W 122°21'0 0.0
2014-Jul-11 13:33N 47°33' W 122°21'0 0.0
2014-Jul-11 13:32N 47°33' W 122°21'0 0.0
2014-Jul-11 12:33N 47°33' W 122°21'0 0.0
2014-Jul-11 12:32N 47°33' W 122°21'0 0.0
2014-Jul-11 11:33N 47°33' W 122°21'0 0.0
2014-Jul-11 11:32N 47°33' W 122°21'0 0.0
2014-Jul-11 10:33N 47°33' W 122°21'0 0.0
2014-Jul-11 10:32N 47°33' W 122°21'0 0.0
2014-Jul-11 09:33N 47°33' W 122°21'0 0.0
2014-Jul-11 09:32N 47°33' W 122°21'0 0.0
2014-Jul-11 08:33N 47°33' W 122°21'0 0.0
2014-Jul-11 08:32N 47°33' W 122°21'0 0.1
2014-Jul-11 07:33N 47°33' W 122°21'0 1.4
2014-Jul-11 07:32N 47°33' W 122°21'4 3.8
2014-Jul-11 06:33N 47°35' W 122°26'0 6.4
2014-Jul-11 06:32N 47°34' W 122°26'4 6.8
2014-Jul-11 05:57N 47°31' W 122°29'3 7.0
2014-Jul-11 05:33N 47°29' W 122°30'7 7.1
2014-Jul-11 04:33N 47°22' W 122°32'8 8.4
2014-Jul-11 03:33N 47°13' W 122°35'8 7.2
2014-Jul-11 02:28N 47°10' W 122°46'7 0.3
2014-Jul-10 00:29N 47°12' W 122°56'5 5.6
2014-Jul-09 23:33N 47°11' W 122°48'8 7.6
2014-Jul-09 22:32N 47°12' W 122°37'9 9.2
2014-Jul-09 21:33N 47°21' W 122°33'6 8.8
2014-Jul-09 20:54N 47°27' W 122°31'3 9.0
2014-Jul-09 20:33N 47°30' W 122°30'1 9.3
2014-Jul-09 20:24N 47°31' W 122°29'7 7.8
2014-Jul-09 19:33N 47°35' W 122°22'1 8.2
2014-Jul-09 19:29N 47°35' W 122°22'2 2.4
2014-Jul-09 18:33N 47°33' W 122°20'0 0.1
2014-Jul-09 18:29N 47°33' W 122°20'0 0.0
2014-Jul-09 17:33N 47°33' W 122°20'0 0.0
2014-Jul-09 17:29N 47°33' W 122°20'0 0.0
2014-Jul-09 16:33N 47°33' W 122°20'0 0.0
2014-Jul-09 16:23N 47°33' W 122°20'0 0.0
2014-Jul-09 15:33N 47°33' W 122°20'0 0.0
2014-Jul-09 14:33N 47°33' W 122°20'0 0.0
2014-Jul-09 14:33N 47°33' W 122°20'0 0.0
2014-Jul-09 13:27N 47°33' W 122°20'0 0.0
2014-Jul-09 13:12N 47°33' W 122°20'0 0.0
2014-Jul-09 12:33N 47°33' W 122°20'0 0.0
2014-Jul-09 12:32N 47°33' W 122°20'0 0.0
2014-Jul-09 11:33N 47°33' W 122°20'0 0.0
2014-Jul-09 11:32N 47°33' W 122°20'0 0.0
2014-Jul-09 10:33N 47°33' W 122°20'0 0.0
2014-Jul-09 10:32N 47°33' W 122°20'0 0.0
2014-Jul-09 09:33N 47°33' W 122°20'0 0.0
2014-Jul-09 09:32N 47°33' W 122°20'0 0.0
2014-Jul-09 08:33N 47°33' W 122°20'0 0.0
2014-Jul-09 08:32N 47°33' W 122°20'0 0.0
2014-Jul-09 07:33N 47°33' W 122°20'0 0.0
2014-Jul-09 07:32N 47°33' W 122°20'0 0.0
2014-Jul-09 06:32N 47°33' W 122°20'0 0.0
2014-Jul-09 06:31N 47°33' W 122°20'  
Track history (hours):
 
Tides and Currents Weather Stations Pressure Air Temp Water Temp Dewpoint Dewpoint Depression Visibility Wind Speed Wind Dir Waves Ship Positions

Holly Ann

More information available from US FCC via Universal Licensing System and Coast Guard Vessel Documentation Center.

Last reported at 2014-Jul-19 06:17 UTC. Time now 2014-Jul-22 15:01 UTC.
Position N 47°10' W 122°55'.

; draft 4.5 m.

Type: Towing. MMSI: 367413350.

Date/timePositionNaut miles runAvg speedWind from/ knotsBaromVisibWave heightAir tempDewpointWater temp
2014-Jul-19 06:17N 47°10' W 122°55'6 7.6
2014-Jul-19 05:32N 47°10' W 122°46'8 8.2
2014-Jul-19 04:33N 47°13' W 122°35'1010.4
2014-Jul-19 03:33N 47°23' W 122°32'6 9.0
2014-Jul-19 02:54N 47°29' W 122°30'3 9.2
2014-Jul-19 02:34N 47°32' W 122°28'0 8.7
2014-Jul-19 02:30N 47°32' W 122°28'5 5.4
2014-Jul-19 01:34N 47°34' W 122°21'0 6.1
2014-Jul-19 01:30N 47°34' W 122°21'1 1.0
2014-Jul-19 00:33N 47°33' W 122°20'0 0.0
2014-Jul-19 00:30N 47°33' W 122°20'0 0.0
2014-Jul-18 23:33N 47°33' W 122°20'0 0.0
2014-Jul-18 23:24N 47°33' W 122°20'0 0.0
2014-Jul-18 22:33N 47°33' W 122°20'0 0.0
2014-Jul-18 22:19N 47°33' W 122°20'0 0.0
2014-Jul-18 21:28N 47°33' W 122°20'0 0.0
2014-Jul-18 21:28N 47°33' W 122°20'0 0.0
2014-Jul-18 20:33N 47°33' W 122°20'0 0.0
2014-Jul-18 20:08N 47°33' W 122°20'0 0.0
2014-Jul-18 19:33N 47°33' W 122°20'0 0.0
2014-Jul-18 19:32N 47°33' W 122°20'0 0.0
2014-Jul-18 18:33N 47°33' W 122°20'0 0.0
2014-Jul-18 18:33N 47°33' W 122°20'0 0.0
2014-Jul-18 17:33N 47°33' W 122°20'0 0.0
2014-Jul-18 17:22N 47°33' W 122°20'0 0.0
2014-Jul-18 16:31N 47°33' W 122°20'0 0.0
2014-Jul-18 16:12N 47°33' W 122°20'0 0.1
2014-Jul-18 15:33N 47°33' W 122°20'0 1.3
2014-Jul-18 15:33N 47°33' W 122°20'1 0.6
2014-Jul-18 14:33N 47°33' W 122°21'0 0.0
2014-Jul-18 14:32N 47°33' W 122°21'0 0.0
2014-Jul-18 13:33N 47°33' W 122°21'0 0.0
2014-Jul-18 13:31N 47°33' W 122°21'0 0.0
2014-Jul-18 12:33N 47°33' W 122°21'0 0.0
2014-Jul-18 12:32N 47°33' W 122°21'3 3.2
2014-Jul-18 11:31N 47°36' W 122°23'7 7.6
2014-Jul-18 10:33N 47°30' W 122°29'1 8.6
2014-Jul-18 10:24N 47°29' W 122°30'7 8.6
2014-Jul-18 09:33N 47°22' W 122°32'10 9.7
2014-Jul-18 08:33N 47°13' W 122°36'7 7.3
2014-Jul-18 07:33N 47°10' W 122°46'13 0.3
2014-Jul-16 04:12N 47°13' W 123°05'6 6.0
2014-Jul-16 03:09N 47°12' W 122°55'0 0.0
2014-Jul-16 01:30N 47°12' W 122°55'11 2.7
2014-Jul-15 21:26N 47°11' W 122°39'7 7.4
2014-Jul-15 20:33N 47°16' W 122°33'7 6.6
2014-Jul-15 19:33N 47°23' W 122°32'7 6.6
2014-Jul-15 18:33N 47°29' W 122°30'5 7.2
2014-Jul-15 17:55N 47°34' W 122°28'3 8.3
2014-Jul-15 17:33N 47°37' W 122°28'0 7.4
2014-Jul-15 17:30N 47°37' W 122°28'7 7.8
2014-Jul-15 16:33N 47°44' W 122°27'0 6.8
2014-Jul-15 16:30N 47°45' W 122°27'7 7.8
2014-Jul-15 15:33N 47°52' W 122°23'9 8.6
2014-Jul-15 14:32N 47°59' W 122°15'3 3.5
2014-Jul-15 13:33N 48°01' W 122°11'0 0.0
2014-Jul-15 12:23N 48°01' W 122°11'0 0.0
2014-Jul-15 09:33N 48°01' W 122°11'0 0.0
2014-Jul-15 08:33N 48°01' W 122°11'0 0.0
2014-Jul-15 07:33N 48°01' W 122°11'0 0.0
2014-Jul-15 06:11N 48°01' W 122°11'0 0.0
2014-Jul-15 05:32N 48°01' W 122°11'0 0.0
2014-Jul-15 04:32N 48°01' W 122°11'0 0.0
2014-Jul-15 03:33N 48°01' W 122°11'1 1.1
2014-Jul-15 02:33N 48°01' W 122°13'3 3.2
2014-Jul-15 01:33N 47°58' W 122°15'3 3.4
2014-Jul-15 00:33N 47°57' W 122°19'4 4.3
2014-Jul-14 23:33N 47°52' W 122°21'4 3.7
2014-Jul-14 22:33N 47°49' W 122°24'0 3.2
2014-Jul-14 22:29N 47°49' W 122°24'3 3.3
2014-Jul-14 21:33N 47°46' W 122°25'0 3.3
2014-Jul-14 21:29N 47°46' W 122°25'3 3.4
2014-Jul-14 20:33N 47°43' W 122°26'0 3.4
2014-Jul-14 20:28N 47°42' W 122°26'4 4.9
2014-Jul-14 19:33N 47°38' W 122°27'0 9.3
2014-Jul-14 19:33N 47°38' W 122°27'7 7.0
2014-Jul-14 18:33N 47°31' W 122°29'1 8.1
2014-Jul-14 18:27N 47°30' W 122°29'8 8.4
2014-Jul-14 17:33N 47°23' W 122°32'1010.1
2014-Jul-14 16:33N 47°13' W 122°35'8 7.3
2014-Jul-14 15:26N 47°10' W 122°46'6 6.5
2014-Jul-14 14:29N 47°11' W 122°55'  
2014-Jul-12 01:23N 47°12' W 122°56'13 6.8
2014-Jul-11 23:32N 47°12' W 122°37'10 9.9
2014-Jul-11 22:33N 47°21' W 122°32'9 8.8
2014-Jul-11 21:33N 47°30' W 122°30'3 9.5
2014-Jul-11 21:17N 47°32' W 122°28'5 6.9
2014-Jul-11 20:33N 47°35' W 122°22'0 7.6
2014-Jul-11 20:32N 47°35' W 122°22'2 1.6
2014-Jul-11 19:33N 47°33' W 122°21'0 0.0
2014-Jul-11 19:32N 47°33' W 122°21'0 0.0
2014-Jul-11 18:33N 47°33' W 122°21'0 0.0
2014-Jul-11 18:32N 47°33' W 122°21'0 0.0
2014-Jul-11 17:33N 47°33' W 122°21'0 0.0
2014-Jul-11 17:32N 47°33' W 122°21'0 0.0
2014-Jul-11 16:32N 47°33' W 122°21'0 0.0
2014-Jul-11 15:21N 47°33' W 122°21'0 0.0
2014-Jul-11 14:57N 47°33' W 122°21'0 0.0
2014-Jul-11 14:33N 47°33' W 122°21'0 0.0
2014-Jul-11 14:32N 47°33' W 122°21'0 0.0
2014-Jul-11 13:33N 47°33' W 122°21'0 0.0
2014-Jul-11 13:32N 47°33' W 122°21'0 0.0
2014-Jul-11 12:33N 47°33' W 122°21'0 0.0
2014-Jul-11 12:32N 47°33' W 122°21'0 0.0
2014-Jul-11 11:33N 47°33' W 122°21'0 0.0
2014-Jul-11 11:32N 47°33' W 122°21'0 0.0
2014-Jul-11 10:33N 47°33' W 122°21'0 0.0
2014-Jul-11 10:32N 47°33' W 122°21'0 0.0
2014-Jul-11 09:33N 47°33' W 122°21'0 0.0
2014-Jul-11 09:32N 47°33' W 122°21'0 0.0
2014-Jul-11 08:33N 47°33' W 122°21'0 0.0
2014-Jul-11 08:32N 47°33' W 122°21'0 0.1
2014-Jul-11 07:33N 47°33' W 122°21'0 1.4
2014-Jul-11 07:32N 47°33' W 122°21'4 3.8
2014-Jul-11 06:33N 47°35' W 122°26'0 6.4
2014-Jul-11 06:32N 47°34' W 122°26'4 6.8
2014-Jul-11 05:57N 47°31' W 122°29'3 7.0
2014-Jul-11 05:33N 47°29' W 122°30'7 7.1
2014-Jul-11 04:33N 47°22' W 122°32'8 8.4
2014-Jul-11 03:33N 47°13' W 122°35'8 7.2
2014-Jul-11 02:28N 47°10' W 122°46'7 0.3
2014-Jul-10 00:29N 47°12' W 122°56'5 5.6
2014-Jul-09 23:33N 47°11' W 122°48'8 7.6
2014-Jul-09 22:32N 47°12' W 122°37'9 9.2
2014-Jul-09 21:33N 47°21' W 122°33'6 8.8
2014-Jul-09 20:54N 47°27' W 122°31'3 9.0
2014-Jul-09 20:33N 47°30' W 122°30'1 9.3
2014-Jul-09 20:24N 47°31' W 122°29'7 7.8
2014-Jul-09 19:33N 47°35' W 122°22'1 8.2
2014-Jul-09 19:29N 47°35' W 122°22'2 2.4
2014-Jul-09 18:33N 47°33' W 122°20'0 0.1
2014-Jul-09 18:29N 47°33' W 122°20'0 0.0
2014-Jul-09 17:33N 47°33' W 122°20'0 0.0
2014-Jul-09 17:29N 47°33' W 122°20'0 0.0
2014-Jul-09 16:33N 47°33' W 122°20'0 0.0
2014-Jul-09 16:23N 47°33' W 122°20'0 0.0
2014-Jul-09 15:33N 47°33' W 122°20'0 0.0
2014-Jul-09 14:33N 47°33' W 122°20'0 0.0
2014-Jul-09 14:33N 47°33' W 122°20'0 0.0
2014-Jul-09 13:27N 47°33' W 122°20'0 0.0
2014-Jul-09 13:12N 47°33' W 122°20'0 0.0
2014-Jul-09 12:33N 47°33' W 122°20'0 0.0
2014-Jul-09 12:32N 47°33' W 122°20'0 0.0
2014-Jul-09 11:33N 47°33' W 122°20'0 0.0
2014-Jul-09 11:32N 47°33' W 122°20'0 0.0
2014-Jul-09 10:33N 47°33' W 122°20'0 0.0
2014-Jul-09 10:32N 47°33' W 122°20'0 0.0
2014-Jul-09 09:33N 47°33' W 122°20'0 0.0
2014-Jul-09 09:32N 47°33' W 122°20'0 0.0
2014-Jul-09 08:33N 47°33' W 122°20'0 0.0
2014-Jul-09 08:32N 47°33' W 122°20'0 0.0
2014-Jul-09 07:33N 47°33' W 122°20'0 0.0
2014-Jul-09 07:32N 47°33' W 122°20'0 0.0
2014-Jul-09 06:32N 47°33' W 122°20'0 0.0
2014-Jul-09 06:31N 47°33' W 122°20'  

Dump ship's entire track history